createdAt,value
2023-03-15T00:00:07.867Z,100.00
2023-03-15T00:02:35.110Z,100.00
2023-03-15T00:05:04.468Z,100.00
2023-03-15T00:07:31.788Z,100.00
2023-03-15T00:10:01.545Z,100.00
2023-03-15T00:12:34.338Z,100.00
2023-03-15T00:15:01.523Z,100.00
2023-03-15T00:17:34.836Z,100.00
2023-03-15T00:20:04.119Z,100.00
2023-03-15T00:22:31.252Z,100.00
2023-03-15T00:25:00.857Z,100.00
2023-03-15T00:27:32.070Z,100.00
2023-03-15T00:29:59.799Z,100.00
2023-03-15T00:32:27.040Z,100.00
2023-03-15T00:34:57.835Z,100.00
2023-03-15T00:37:25.713Z,100.00
2023-03-15T00:39:55.709Z,100.00
2023-03-15T00:42:27.582Z,100.00
2023-03-15T00:44:57.773Z,100.00
2023-03-15T00:47:27.644Z,100.00
2023-03-15T00:49:54.802Z,100.00
2023-03-15T00:52:23.183Z,100.00
2023-03-15T00:54:53.496Z,100.00
2023-03-15T00:57:21.511Z,100.00
2023-03-15T00:59:48.706Z,100.00
2023-03-15T01:02:15.908Z,100.00
2023-03-15T01:04:45.150Z,100.00
2023-03-15T01:07:12.347Z,100.00
2023-03-15T01:09:39.639Z,100.00
2023-03-15T01:12:08.981Z,100.00
2023-03-15T01:14:37.657Z,100.00
2023-03-15T01:17:05.021Z,100.00
2023-03-15T01:19:32.263Z,100.00
2023-03-15T01:21:59.470Z,100.00
2023-03-15T01:24:27.748Z,100.00
2023-03-15T01:26:57.532Z,100.00
2023-03-15T01:29:28.741Z,100.00
2023-03-15T01:31:58.064Z,100.00
2023-03-15T01:34:25.501Z,100.00
2023-03-15T01:36:53.742Z,100.00
2023-03-15T01:39:26.210Z,100.00
2023-03-15T01:41:53.810Z,100.00
2023-03-15T01:44:21.920Z,100.00
2023-03-15T01:49:50.488Z,100.00
2023-03-15T01:52:25.979Z,100.00
2023-03-15T01:55:04.614Z,100.00
2023-03-15T01:57:51.605Z,100.00
2023-03-15T02:00:20.448Z,100.00
2023-03-15T02:03:18.729Z,100.00
2023-03-15T02:05:54.697Z,100.00
2023-03-15T02:08:44.675Z,100.00
2023-03-15T02:11:13.518Z,100.00
2023-03-15T02:13:44.933Z,100.00
2023-03-15T02:16:12.407Z,100.00
2023-03-15T02:18:47.633Z,100.00
2023-03-15T02:21:30.459Z,100.00
2023-03-15T02:24:21.322Z,100.00
2023-03-15T02:26:57.059Z,100.00
2023-03-15T02:29:28.141Z,100.00
2023-03-15T02:31:57.153Z,100.00
2023-03-15T02:34:26.302Z,100.00
2023-03-15T02:36:55.564Z,100.00
2023-03-15T02:39:23.335Z,100.00
2023-03-15T02:41:57.134Z,100.00
2023-03-15T02:44:31.584Z,100.00
2023-03-15T02:47:08.850Z,100.00
2023-03-15T02:49:43.898Z,100.00
2023-03-15T02:52:14.860Z,100.00
2023-03-15T02:54:44.879Z,100.00
2023-03-15T02:57:15.931Z,100.00
2023-03-15T02:59:50.628Z,100.00
2023-03-15T03:02:18.416Z,100.00
2023-03-15T03:04:48.654Z,100.00
2023-03-15T03:07:21.668Z,100.00
2023-03-15T03:09:56.171Z,100.00
2023-03-15T03:12:23.799Z,100.00
2023-03-15T03:14:51.133Z,100.00
2023-03-15T03:17:22.768Z,100.00
2023-03-15T03:19:51.734Z,100.00
2023-03-15T03:22:26.520Z,100.00
2023-03-15T03:24:54.828Z,100.00
2023-03-15T03:27:22.200Z,100.00
2023-03-15T03:29:50.286Z,100.00
2023-03-15T03:32:17.687Z,100.00
2023-03-15T03:34:48.285Z,100.00
2023-03-15T03:37:20.523Z,100.00
2023-03-15T03:40:00.741Z,100.00
2023-03-15T03:42:30.446Z,100.00
2023-03-15T03:45:00.755Z,100.00
2023-03-15T03:47:35.972Z,100.00
2023-03-15T03:50:03.584Z,100.00
2023-03-15T03:52:32.682Z,100.00
2023-03-15T03:55:15.074Z,100.00
2023-03-15T03:57:43.863Z,100.00
2023-03-15T04:00:17.809Z,100.00
2023-03-15T04:02:46.786Z,100.00
2023-03-15T04:05:18.216Z,100.00
2023-03-15T04:07:45.987Z,100.00
2023-03-15T04:10:16.137Z,100.00
2023-03-15T04:12:46.761Z,100.00
2023-03-15T04:15:15.269Z,100.00
2023-03-15T04:17:47.528Z,100.00
2023-03-15T04:20:17.429Z,100.00
2023-03-15T04:22:49.629Z,100.00
2023-03-15T04:25:31.671Z,100.00
2023-03-15T04:28:38.038Z,100.00
2023-03-15T04:31:27.079Z,100.00
2023-03-15T04:34:28.319Z,100.00
2023-03-15T04:37:24.380Z,100.00
2023-03-15T04:40:11.698Z,100.00
2023-03-15T04:42:56.520Z,100.00
2023-03-15T04:45:38.638Z,100.00
2023-03-15T04:48:31.163Z,100.00
2023-03-15T04:51:24.683Z,100.00
2023-03-15T04:54:26.481Z,100.00
2023-03-15T04:57:13.983Z,100.00
2023-03-15T04:59:54.049Z,100.00
2023-03-15T05:02:41.799Z,100.00
2023-03-15T05:05:19.224Z,100.00
2023-03-15T05:08:05.172Z,100.00
2023-03-15T05:10:42.478Z,100.00
2023-03-15T05:13:24.416Z,100.00
2023-03-15T05:16:15.805Z,100.00
2023-03-15T05:18:45.294Z,100.00
2023-03-15T05:21:37.949Z,100.00
2023-03-15T05:24:34.122Z,100.00
2023-03-15T05:27:16.470Z,100.00
2023-03-15T05:29:56.074Z,100.00
2023-03-15T05:32:44.761Z,100.00
2023-03-15T05:35:39.547Z,100.00
2023-03-15T05:38:26.838Z,100.00
2023-03-15T05:41:09.155Z,100.00
2023-03-15T05:43:55.358Z,100.00
2023-03-15T05:46:42.635Z,100.00
2023-03-15T05:49:26.842Z,100.00
2023-03-15T05:52:15.083Z,100.00
2023-03-15T05:54:50.930Z,100.00
2023-03-15T05:57:52.440Z,100.00
2023-03-15T06:00:37.731Z,100.00
2023-03-15T06:03:16.193Z,100.00
2023-03-15T06:05:54.410Z,100.00
2023-03-15T06:08:30.841Z,100.00
2023-03-15T06:11:01.396Z,100.00
2023-03-15T06:13:28.755Z,100.00
2023-03-15T06:15:58.200Z,100.00
2023-03-15T06:18:26.171Z,100.00
2023-03-15T06:20:53.440Z,100.00
2023-03-15T06:23:20.759Z,100.00
2023-03-15T06:25:48.281Z,100.00
2023-03-15T06:28:18.638Z,100.00
2023-03-15T06:30:52.508Z,100.00
2023-03-15T06:33:24.864Z,100.00
2023-03-15T06:35:54.488Z,100.00
2023-03-15T06:38:21.936Z,100.00
2023-03-15T06:40:49.046Z,100.00
2023-03-15T06:43:19.698Z,100.00
2023-03-15T06:45:47.284Z,100.00
2023-03-15T06:48:16.047Z,100.00
2023-03-15T06:50:47.334Z,100.00
2023-03-15T06:53:16.878Z,100.00
2023-03-15T06:55:47.710Z,100.00
2023-03-15T06:58:14.961Z,100.00
2023-03-15T07:00:42.849Z,100.00
2023-03-15T07:03:12.168Z,100.00
2023-03-15T07:05:41.824Z,100.00
2023-03-15T07:08:09.321Z,100.00
2023-03-15T07:10:39.681Z,100.00
2023-03-15T07:13:10.103Z,100.00
2023-03-15T07:15:39.805Z,100.00
2023-03-15T07:18:15.913Z,100.00
2023-03-15T07:20:43.432Z,100.00
2023-03-15T07:23:13.066Z,100.00
2023-03-15T07:25:54.324Z,100.00
2023-03-15T07:28:27.214Z,100.00
2023-03-15T07:30:59.708Z,100.00
2023-03-15T07:33:29.107Z,100.00
2023-03-15T07:35:56.553Z,100.00
2023-03-15T07:38:26.009Z,100.00
2023-03-15T07:40:53.095Z,100.00
2023-03-15T07:43:24.057Z,100.00
2023-03-15T07:45:59.505Z,100.00
2023-03-15T07:48:32.411Z,100.00
2023-03-15T07:51:02.967Z,100.00
2023-03-15T07:53:30.592Z,100.00
2023-03-15T07:55:57.978Z,100.00
2023-03-15T07:58:25.195Z,100.00
2023-03-15T08:00:55.939Z,100.00
2023-03-15T08:03:27.740Z,100.00
2023-03-15T08:05:58.384Z,100.00
2023-03-15T08:08:28.055Z,100.00
2023-03-15T08:10:59.341Z,100.00
2023-03-15T08:13:26.726Z,100.00
2023-03-15T08:15:56.207Z,100.00
2023-03-15T08:18:23.525Z,100.00
2023-03-15T08:20:50.929Z,100.00
2023-03-15T08:23:21.782Z,100.00
2023-03-15T08:25:51.674Z,100.00
2023-03-15T08:28:19.116Z,100.00
2023-03-15T08:30:46.497Z,100.00
2023-03-15T08:33:16.171Z,100.00
2023-03-15T08:35:43.664Z,100.00
2023-03-15T08:38:10.842Z,100.00
2023-03-15T08:40:39.884Z,100.00
2023-03-15T08:43:09.539Z,100.00
2023-03-15T08:45:56.578Z,100.00
2023-03-15T08:48:24.577Z,100.00
2023-03-15T08:50:51.785Z,100.00
2023-03-15T08:53:21.356Z,100.00
2023-03-15T08:55:49.610Z,100.00
2023-03-15T08:58:18.040Z,100.00
2023-03-15T09:00:47.690Z,100.00
2023-03-15T09:03:17.374Z,100.00
2023-03-15T09:05:44.803Z,100.00
2023-03-15T09:08:14.595Z,100.00
2023-03-15T09:10:41.956Z,100.00
2023-03-15T09:13:11.124Z,100.00
2023-03-15T09:15:38.300Z,100.00
2023-03-15T09:18:08.236Z,100.00
2023-03-15T09:20:40.106Z,100.00
2023-03-15T09:23:08.582Z,100.00
2023-03-15T09:25:38.262Z,100.00
2023-03-15T09:28:07.725Z,100.00
2023-03-15T09:30:36.833Z,100.00
2023-03-15T09:33:04.593Z,100.00
2023-03-15T09:35:32.140Z,100.00
2023-03-15T09:38:00.565Z,100.00
2023-03-15T09:40:37.746Z,100.00
2023-03-15T09:43:08.766Z,100.00
2023-03-15T09:45:51.308Z,100.00
2023-03-15T09:48:25.694Z,100.00
2023-03-15T09:51:28.691Z,100.00
2023-03-15T09:54:08.761Z,100.00
2023-03-15T09:56:38.283Z,100.00
2023-03-15T09:59:06.929Z,100.00
2023-03-15T10:01:40.465Z,100.00
2023-03-15T10:04:27.557Z,100.00
2023-03-15T10:06:58.089Z,100.00
2023-03-15T10:09:34.845Z,100.00
2023-03-15T10:12:04.476Z,100.00
2023-03-15T10:14:53.406Z,100.00
2023-03-15T10:17:46.818Z,100.00
2023-03-15T10:20:18.973Z,100.00
2023-03-15T10:23:19.322Z,100.00
2023-03-15T10:25:51.163Z,100.00
2023-03-15T10:28:28.464Z,100.00
2023-03-15T10:31:02.886Z,100.00
2023-03-15T10:33:36.069Z,100.00
2023-03-15T10:36:24.173Z,100.00
2023-03-15T10:38:51.646Z,100.00
2023-03-15T10:41:51.420Z,100.00
2023-03-15T10:44:24.968Z,100.00
2023-03-15T10:47:22.190Z,100.00
2023-03-15T10:49:56.171Z,100.00
2023-03-15T10:52:31.767Z,92.24
2023-03-15T10:55:04.594Z,91.97
2023-03-15T10:57:35.129Z,81.25
2023-03-15T11:00:23.987Z,85.30
2023-03-15T11:03:07.342Z,84.34
2023-03-15T11:05:47.017Z,79.28
2023-03-15T11:08:20.636Z,80.37
2023-03-15T11:10:57.329Z,77.41
2023-03-15T11:13:25.920Z,79.84
2023-03-15T11:16:05.600Z,84.50
2023-03-15T11:18:57.525Z,85.24
2023-03-15T11:21:33.582Z,88.59
2023-03-15T11:24:07.066Z,90.67
2023-03-15T11:26:39.527Z,92.47
2023-03-15T11:29:22.147Z,93.97
2023-03-15T11:31:51.306Z,95.23
2023-03-15T11:34:46.090Z,96.01
2023-03-15T11:37:19.201Z,96.81
2023-03-15T11:40:05.083Z,97.60
2023-03-15T11:42:48.551Z,98.12
2023-03-15T11:45:43.096Z,98.52
2023-03-15T11:48:36.758Z,99.27
2023-03-15T11:51:07.842Z,99.90
2023-03-15T11:53:43.439Z,98.86
2023-03-15T11:56:21.899Z,98.53
2023-03-15T11:59:15.872Z,99.79
2023-03-15T12:01:56.018Z,100.00
2023-03-15T12:04:32.900Z,100.00
2023-03-15T12:07:03.641Z,100.00
2023-03-15T12:09:33.816Z,100.00
2023-03-15T12:12:06.673Z,100.00
2023-03-15T12:14:35.739Z,100.00
2023-03-15T12:17:26.875Z,100.00
2023-03-15T12:20:14.741Z,100.00
2023-03-15T12:22:51.353Z,100.00
2023-03-15T12:25:23.129Z,100.00
2023-03-15T12:27:54.319Z,100.00
2023-03-15T12:30:36.777Z,100.00
2023-03-15T12:33:12.196Z,100.00
2023-03-15T12:35:44.628Z,100.00
2023-03-15T12:38:17.704Z,100.00
2023-03-15T12:40:50.735Z,100.00
2023-03-15T12:44:15.703Z,100.00
2023-03-15T12:47:04.214Z,100.00
2023-03-15T12:49:36.025Z,100.00
2023-03-15T12:52:13.610Z,100.00
2023-03-15T12:54:55.167Z,100.00
2023-03-15T12:57:46.604Z,100.00
2023-03-15T13:00:19.778Z,100.00
2023-03-15T13:02:54.040Z,100.00
2023-03-15T13:05:24.999Z,100.00
2023-03-15T13:08:04.517Z,100.00
2023-03-15T13:10:40.412Z,100.00
2023-03-15T13:13:25.833Z,100.00
2023-03-15T13:16:05.395Z,94.54
2023-03-15T13:19:06.207Z,89.35
2023-03-15T13:21:43.438Z,89.67
2023-03-15T13:24:21.628Z,92.49
2023-03-15T13:27:03.983Z,92.71
2023-03-15T13:29:33.616Z,95.75
2023-03-15T13:32:16.357Z,95.84
2023-03-15T13:34:47.747Z,97.21
2023-03-15T13:37:21.829Z,96.20
2023-03-15T13:39:55.512Z,96.99
2023-03-15T13:42:25.953Z,98.64
2023-03-15T13:45:04.193Z,99.77
2023-03-15T13:47:31.468Z,100.00
2023-03-15T13:49:58.818Z,100.00
2023-03-15T13:52:25.979Z,100.00
2023-03-15T13:54:53.919Z,100.00
2023-03-15T13:57:23.654Z,100.00
2023-03-15T14:00:00.733Z,100.00
2023-03-15T14:02:36.902Z,100.00
2023-03-15T14:05:11.444Z,100.00
2023-03-15T14:07:41.658Z,100.00
2023-03-15T14:10:27.824Z,100.00
2023-03-15T14:12:57.084Z,100.00
2023-03-15T14:15:44.152Z,100.00
2023-03-15T14:18:11.459Z,100.00
2023-03-15T14:20:43.268Z,100.00
2023-03-15T14:23:19.626Z,100.00
2023-03-15T14:26:05.805Z,100.00
2023-03-15T14:28:33.918Z,100.00
2023-03-15T14:31:03.792Z,100.00
2023-03-15T14:33:42.123Z,100.00
2023-03-15T14:36:24.739Z,100.00
2023-03-15T14:38:54.030Z,100.00
2023-03-15T14:41:27.311Z,100.00
2023-03-15T14:43:54.414Z,100.00
2023-03-15T14:46:21.724Z,100.00
2023-03-15T14:48:52.114Z,100.00
2023-03-15T14:51:21.864Z,100.00
2023-03-15T14:53:56.240Z,100.00
2023-03-15T14:56:24.827Z,100.00
2023-03-15T14:58:54.227Z,100.00
2023-03-15T15:01:26.483Z,100.00
2023-03-15T15:04:03.863Z,100.00
2023-03-15T15:06:36.733Z,100.00
2023-03-15T15:09:06.417Z,100.00
2023-03-15T15:11:33.817Z,100.00
2023-03-15T15:14:03.630Z,100.00
2023-03-15T15:16:33.098Z,100.00
2023-03-15T15:19:00.519Z,100.00
2023-03-15T15:21:33.931Z,100.00
2023-03-15T15:24:07.251Z,100.00
2023-03-15T15:26:35.899Z,100.00
2023-03-15T15:29:03.182Z,100.00
2023-03-15T15:31:34.357Z,100.00
2023-03-15T15:34:02.002Z,100.00
2023-03-15T15:36:36.587Z,100.00
2023-03-15T15:39:07.137Z,100.00
2023-03-15T15:41:34.762Z,100.00
2023-03-15T15:44:04.551Z,100.00
2023-03-15T15:46:32.320Z,100.00
2023-03-15T15:48:59.545Z,100.00
2023-03-15T15:51:34.169Z,100.00
2023-03-15T15:54:02.357Z,100.00
2023-03-15T15:56:44.806Z,100.00
2023-03-15T15:59:14.906Z,100.00
2023-03-15T16:02:00.118Z,100.00
2023-03-15T16:04:30.925Z,100.00
2023-03-15T16:07:02.051Z,100.00
2023-03-15T16:09:31.474Z,100.00
2023-03-15T16:11:58.729Z,100.00
2023-03-15T16:14:28.429Z,100.00
2023-03-15T16:16:57.877Z,100.00
2023-03-15T16:19:25.360Z,100.00
2023-03-15T16:21:54.387Z,100.00
2023-03-15T16:24:30.628Z,100.00
2023-03-15T16:27:06.048Z,100.00
2023-03-15T16:29:48.925Z,100.00
2023-03-15T16:32:33.383Z,100.00
2023-03-15T16:35:17.376Z,100.00
2023-03-15T16:37:46.073Z,100.00
2023-03-15T16:40:39.735Z,100.00
2023-03-15T16:43:13.784Z,100.00
2023-03-15T16:45:41.325Z,100.00
2023-03-15T16:48:11.990Z,100.00
2023-03-15T16:50:40.957Z,100.00
2023-03-15T16:53:10.692Z,100.00
2023-03-15T16:55:38.619Z,100.00
2023-03-15T16:58:20.061Z,100.00
2023-03-15T17:00:48.442Z,100.00
2023-03-15T17:03:19.338Z,100.00
2023-03-15T17:05:47.959Z,100.00
2023-03-15T17:08:20.791Z,100.00
2023-03-15T17:10:49.215Z,100.00
2023-03-15T17:13:24.800Z,100.00
2023-03-15T17:15:52.497Z,100.00
2023-03-15T17:18:21.984Z,100.00
2023-03-15T17:20:50.262Z,100.00
2023-03-15T17:23:21.151Z,100.00
2023-03-15T17:25:51.619Z,100.00
2023-03-15T17:28:19.710Z,100.00
2023-03-15T17:30:48.427Z,100.00
2023-03-15T17:33:15.839Z,100.00
2023-03-15T17:35:47.323Z,100.00
2023-03-15T17:38:19.903Z,100.00
2023-03-15T17:40:48.289Z,100.00
2023-03-15T17:43:19.213Z,100.00
2023-03-15T17:45:46.784Z,100.00
2023-03-15T17:48:14.037Z,100.00
2023-03-15T17:50:45.898Z,100.00
2023-03-15T17:53:17.079Z,100.00
2023-03-15T17:55:47.904Z,100.00
2023-03-15T17:58:23.351Z,100.00
2023-03-15T18:00:54.970Z,100.00
2023-03-15T18:03:23.138Z,100.00
2023-03-15T18:05:50.367Z,100.00
2023-03-15T18:08:21.056Z,100.00
2023-03-15T18:10:50.656Z,100.00
2023-03-15T18:13:21.384Z,100.00
2023-03-15T18:15:52.201Z,100.00
2023-03-15T18:18:20.183Z,100.00
2023-03-15T18:20:49.368Z,100.00
2023-03-15T18:23:19.453Z,100.00
2023-03-15T18:25:46.785Z,100.00
2023-03-15T18:28:15.362Z,100.00
2023-03-15T18:30:44.750Z,100.00
2023-03-15T18:33:15.825Z,100.00
2023-03-15T18:35:43.318Z,100.00
2023-03-15T18:38:10.752Z,100.00
2023-03-15T18:40:37.965Z,100.00
2023-03-15T18:43:06.477Z,100.00
2023-03-15T18:45:35.823Z,100.00
2023-03-15T18:48:04.458Z,100.00
2023-03-15T18:50:33.567Z,100.00
2023-03-15T18:53:01.486Z,100.00
2023-03-15T18:55:28.900Z,100.00
2023-03-15T18:57:56.546Z,100.00
2023-03-15T19:00:35.961Z,100.00
2023-03-15T19:03:05.601Z,100.00
2023-03-15T19:05:39.112Z,100.00
2023-03-15T19:08:09.145Z,100.00
2023-03-15T19:10:39.605Z,100.00
2023-03-15T19:13:06.924Z,100.00
2023-03-15T19:15:36.777Z,100.00
2023-03-15T19:18:06.459Z,100.00
2023-03-15T19:20:34.946Z,100.00
2023-03-15T19:23:04.484Z,100.00
2023-03-15T19:25:32.896Z,100.00
2023-03-15T19:28:01.527Z,100.00
2023-03-15T19:30:32.677Z,100.00
2023-03-15T19:33:01.372Z,100.00
2023-03-15T19:35:28.859Z,100.00
2023-03-15T19:37:58.189Z,100.00
2023-03-15T19:40:25.726Z,100.00
2023-03-15T19:42:53.420Z,100.00
2023-03-15T19:45:20.857Z,100.00
2023-03-15T19:47:50.624Z,100.00
2023-03-15T19:50:18.087Z,100.00
2023-03-15T19:52:49.993Z,100.00
2023-03-15T19:55:20.240Z,100.00
2023-03-15T19:57:47.982Z,100.00
2023-03-15T20:00:18.725Z,100.00
2023-03-15T20:02:47.078Z,100.00
2023-03-15T20:05:16.809Z,100.00
2023-03-15T20:07:44.635Z,100.00
2023-03-15T20:10:20.994Z,100.00
2023-03-15T20:12:49.288Z,100.00
2023-03-15T20:15:19.328Z,100.00
2023-03-15T20:17:46.945Z,100.00
2023-03-15T20:20:15.215Z,100.00
2023-03-15T20:22:46.484Z,100.00
2023-03-15T20:25:18.777Z,100.00
2023-03-15T20:27:48.365Z,100.00
2023-03-15T20:30:17.631Z,100.00
2023-03-15T20:32:45.182Z,100.00
2023-03-15T20:35:14.363Z,100.00
2023-03-15T20:37:42.781Z,100.00
2023-03-15T20:40:13.233Z,100.00
2023-03-15T20:42:41.307Z,100.00
2023-03-15T20:45:12.466Z,100.00
2023-03-15T20:47:41.081Z,100.00
2023-03-15T20:50:12.094Z,100.00
2023-03-15T20:52:40.880Z,100.00
2023-03-15T20:55:09.576Z,100.00
2023-03-15T20:57:37.150Z,100.00
2023-03-15T21:00:12.409Z,100.00
2023-03-15T21:02:40.463Z,100.00
2023-03-15T21:05:12.982Z,100.00
2023-03-15T21:07:41.439Z,100.00
2023-03-15T21:10:11.019Z,100.00
2023-03-15T21:12:44.098Z,100.00
2023-03-15T21:15:17.266Z,100.00
2023-03-15T21:17:46.264Z,100.00
2023-03-15T21:20:16.418Z,100.00
2023-03-15T21:22:44.411Z,100.00
2023-03-15T21:25:13.340Z,100.00
2023-03-15T21:27:43.305Z,100.00
2023-03-15T21:30:13.889Z,100.00
2023-03-15T21:32:44.978Z,100.00
2023-03-15T21:35:12.501Z,100.00
2023-03-15T21:37:40.112Z,100.00
2023-03-15T21:40:08.234Z,100.00
2023-03-15T21:42:35.688Z,100.00
2023-03-15T21:45:04.246Z,100.00
2023-03-15T21:47:31.627Z,100.00
2023-03-15T21:50:00.421Z,100.00
2023-03-15T21:52:28.032Z,100.00
2023-03-15T21:54:55.313Z,100.00
2023-03-15T21:57:22.601Z,100.00
2023-03-15T21:59:50.713Z,100.00
2023-03-15T22:02:19.977Z,100.00
2023-03-15T22:04:47.629Z,100.00
2023-03-15T22:07:14.867Z,100.00
2023-03-15T22:09:46.008Z,100.00
2023-03-15T22:12:15.363Z,100.00
2023-03-15T22:14:43.563Z,100.00
2023-03-15T22:17:13.349Z,100.00
2023-03-15T22:19:41.568Z,100.00
2023-03-15T22:22:09.252Z,100.00
2023-03-15T22:24:38.956Z,100.00
2023-03-15T22:27:06.877Z,100.00
2023-03-15T22:29:39.582Z,100.00
2023-03-15T22:32:07.778Z,100.00
2023-03-15T22:34:35.536Z,100.00
2023-03-15T22:37:03.342Z,100.00
2023-03-15T22:39:34.030Z,100.00
2023-03-15T22:42:03.762Z,100.00
2023-03-15T22:44:31.170Z,100.00
2023-03-15T22:47:01.177Z,100.00
2023-03-15T22:49:28.347Z,100.00
2023-03-15T22:51:58.209Z,100.00
2023-03-15T22:54:25.681Z,100.00
2023-03-15T22:56:52.760Z,100.00
2023-03-15T22:59:20.405Z,100.00
2023-03-15T23:01:49.633Z,100.00
2023-03-15T23:04:16.884Z,100.00
2023-03-15T23:06:44.336Z,100.00
2023-03-15T23:09:11.491Z,100.00
2023-03-15T23:11:38.757Z,100.00
2023-03-15T23:14:06.214Z,100.00
2023-03-15T23:16:33.497Z,100.00
2023-03-15T23:19:03.798Z,100.00
2023-03-15T23:21:31.234Z,100.00
2023-03-15T23:23:58.826Z,100.00
2023-03-15T23:26:26.738Z,100.00
2023-03-15T23:28:54.630Z,100.00
2023-03-15T23:31:21.961Z,100.00
2023-03-15T23:33:51.552Z,100.00
2023-03-15T23:36:21.200Z,100.00
2023-03-15T23:38:48.493Z,100.00
2023-03-15T23:41:15.828Z,100.00
2023-03-15T23:43:43.068Z,100.00
2023-03-15T23:46:15.153Z,100.00
2023-03-15T23:48:42.492Z,100.00
2023-03-15T23:51:12.572Z,100.00
2023-03-15T23:53:43.491Z,100.00
2023-03-15T23:56:10.963Z,100.00
2023-03-15T23:58:38.121Z,100.00
